Time;durP1;ratioP1;P1;durP2;ratioP2;P2;SDS_P1;SDS_P2;PMS_P1;PMS_P2;Temp;Humidity;BMP_temperature;BMP_pressure;BME280_temperature;BME280_humidity;BME280_pressure;Samples;Min_cycle;Max_cycle;Signal;HPM_P1;HPM_P2
2023/03/04 00:00:45;;;;;;;0.52;0.52;;;;;;;;;;5052945;28;20036;-71
2023/03/04 00:03:10;;;;;;;0.75;0.75;;;;;;;;;;5052143;28;20025;-72
2023/03/04 00:05:36;;;;;;;0.10;0.10;;;;;;;;;;5052120;28;20037;-72
2023/03/04 00:08:02;;;;;;;0.10;0.10;;;;;;;;;;5052783;28;20032;-71
2023/03/04 00:10:27;;;;;;;0.10;0.10;;;;;;;;;;5052524;28;20123;-70
2023/03/04 00:12:53;;;;;;;0.17;0.17;;;;;;;;;;5052584;28;20040;-71
2023/03/04 00:15:18;;;;;;;0.20;0.20;;;;;;;;;;5051967;28;20033;-70
2023/03/04 00:17:45;;;;;;;0.95;0.95;;;;;;;;;;5055989;28;20032;-70
2023/03/04 00:20:10;;;;;;;3.40;2.22;;;;;;;;;;5041247;28;20039;-71
2023/03/04 00:22:36;;;;;;;0.10;0.10;;;;;;;;;;5068721;28;20476;-69
2023/03/04 00:25:01;;;;;;;0.30;0.30;;;;;;;;;;5066587;28;20016;-71
2023/03/04 00:27:27;;;;;;;0.20;0.20;;;;;;;;;;5064317;28;20029;-70
2023/03/04 00:29:52;;;;;;;0.52;0.50;;;;;;;;;;5056698;28;20437;-71
2023/03/04 00:32:17;;;;;;;0.13;0.13;;;;;;;;;;5054525;28;20052;-70
2023/03/04 00:34:43;;;;;;;0.10;0.10;;;;;;;;;;5053997;28;20094;-72
2023/03/04 00:37:08;;;;;;;0.30;0.30;;;;;;;;;;5055757;28;20068;-72
2023/03/04 00:39:34;;;;;;;0.10;0.10;;;;;;;;;;5055514;28;20031;-69
2023/03/04 00:42:00;;;;;;;0.10;0.10;;;;;;;;;;5055575;28;20025;-71
2023/03/04 00:44:25;;;;;;;0.17;0.17;;;;;;;;;;5064905;28;20091;-70
2023/03/04 00:46:51;;;;;;;0.10;0.10;;;;;;;;;;5064197;28;20079;-73
2023/03/04 00:49:16;;;;;;;0.10;0.10;;;;;;;;;;5058927;28;20040;-72
2023/03/04 00:51:41;;;;;;;0.15;0.15;;;;;;;;;;5061077;28;20094;-72
2023/03/04 00:54:07;;;;;;;0.80;0.80;;;;;;;;;;5059320;28;20044;-70
2023/03/04 00:56:32;;;;;;;0.38;0.38;;;;;;;;;;5060420;28;20032;-71
2023/03/04 00:58:58;;;;;;;0.10;0.10;;;;;;;;;;5063792;28;20017;-74
2023/03/04 01:01:24;;;;;;;0.30;0.30;;;;;;;;;;5064692;28;20020;-71
2023/03/04 01:03:50;;;;;;;0.10;0.10;;;;;;;;;;5071065;28;20407;-71
2023/03/04 01:06:15;;;;;;;0.20;0.20;;;;;;;;;;5057177;28;20035;-71
2023/03/04 01:08:41;;;;;;;3.20;1.25;;;;;;;;;;5073972;28;20020;-71
2023/03/04 01:11:06;;;;;;;0.10;0.10;;;;;;;;;;5075245;28;20111;-71
2023/03/04 01:13:32;;;;;;;0.98;0.98;;;;;;;;;;5073718;28;20460;-71
2023/03/04 01:15:57;;;;;;;0.30;0.30;;;;;;;;;;5074822;28;20166;-71
2023/03/04 01:18:24;;;;;;;0.45;0.45;;;;;;;;;;5073620;28;20148;-70
2023/03/04 01:20:50;;;;;;;0.35;0.35;;;;;;;;;;5073416;28;20019;-71
2023/03/04 01:23:15;;;;;;;0.63;0.63;;;;;;;;;;5073595;28;20036;-71
2023/03/04 01:25:41;;;;;;;0.13;0.13;;;;;;;;;;5056942;28;20036;-72
2023/03/04 01:28:06;;;;;;;1.55;1.13;;;;;;;;;;5054750;28;20079;-71
2023/03/04 01:30:31;;;;;;;0.20;0.20;;;;;;;;;;5036794;28;20464;-72
2023/03/04 01:32:57;;;;;;;0.15;0.15;;;;;;;;;;5055824;28;20040;-71
2023/03/04 01:35:23;;;;;;;0.30;0.30;;;;;;;;;;5064975;28;20029;-71
2023/03/04 01:37:51;;;;;;;1.08;1.00;;;;;;;;;;5053743;28;20017;-70
2023/03/04 01:40:20;;;;;;;0.20;0.20;;;;;;;;;;5069979;28;20074;-69
2023/03/04 01:42:45;;;;;;;0.10;0.10;;;;;;;;;;5053760;28;20040;-70
2023/03/04 01:45:15;;;;;;;0.20;0.20;;;;;;;;;;5074179;28;20032;-71
2023/03/04 01:47:47;;;;;;;0.43;0.43;;;;;;;;;;5074206;28;20418;-70
2023/03/04 01:50:21;;;;;;;3.50;3.20;;;;;;;;;;5056542;28;20357;-71
2023/03/04 01:52:46;;;;;;;0.10;0.10;;;;;;;;;;5073331;28;20043;-71
2023/03/04 01:55:17;;;;;;;0.10;0.10;;;;;;;;;;5073089;28;20051;-71
2023/03/04 01:57:42;;;;;;;0.20;0.20;;;;;;;;;;5056223;28;20032;-70
2023/03/04 02:00:20;;;;;;;0.47;0.47;;;;;;;;;;5073109;28;20027;-70
2023/03/04 02:02:47;;;;;;;0.30;0.30;;;;;;;;;;5056135;28;20051;-71
2023/03/04 02:05:12;;;;;;;0.20;0.20;;;;;;;;;;5056169;28;20032;-69
2023/03/04 02:07:39;;;;;;;0.20;0.20;;;;;;;;;;5072537;28;20029;-71
2023/03/04 02:10:04;;;;;;;0.20;0.20;;;;;;;;;;5072698;28;20028;-71
2023/03/04 02:12:30;;;;;;;2.33;1.35;;;;;;;;;;5073823;28;20068;-70
2023/03/04 02:14:57;;;;;;;0.10;0.10;;;;;;;;;;5073586;28;20369;-70
2023/03/04 02:17:26;;;;;;;0.10;0.10;;;;;;;;;;5072326;28;20066;-70
2023/03/04 02:20:06;;;;;;;0.10;0.10;;;;;;;;;;5073827;28;20483;-69
2023/03/04 02:22:34;;;;;;;0.17;0.17;;;;;;;;;;5055689;28;20122;-70
2023/03/04 02:25:02;;;;;;;0.10;0.10;;;;;;;;;;5073928;28;20033;-70
2023/03/04 02:27:28;;;;;;;0.10;0.10;;;;;;;;;;5073741;28;20030;-70
2023/03/04 02:29:53;;;;;;;0.20;0.20;;;;;;;;;;5055635;28;20025;-70
2023/03/04 02:32:19;;;;;;;0.50;0.50;;;;;;;;;;5073600;28;20052;-70
2023/03/04 02:34:46;;;;;;;0.10;0.10;;;;;;;;;;5073722;28;20395;-70
2023/03/04 02:37:12;;;;;;;0.10;0.10;;;;;;;;;;5072481;28;20028;-70
2023/03/04 02:39:41;;;;;;;0.10;0.10;;;;;;;;;;5071526;28;20055;-71
2023/03/04 02:42:09;;;;;;;0.17;0.17;;;;;;;;;;5072021;28;20527;-70
2023/03/04 02:44:36;;;;;;;0.10;0.10;;;;;;;;;;5072246;28;20116;-71
2023/03/04 02:47:03;;;;;;;0.10;0.10;;;;;;;;;;5072300;28;20066;-69
2023/03/04 02:49:30;;;;;;;0.10;0.10;;;;;;;;;;5072418;28;20033;-69
2023/03/04 02:52:11;;;;;;;0.10;0.10;;;;;;;;;;5072116;28;20111;-70
2023/03/04 02:54:37;;;;;;;0.10;0.10;;;;;;;;;;5071405;28;20033;-70
2023/03/04 02:57:05;;;;;;;0.20;0.20;;;;;;;;;;5055052;28;20024;-70
2023/03/04 02:59:34;;;;;;;0.65;0.65;;;;;;;;;;5055781;28;20093;-70
2023/03/04 03:01:59;;;;;;;1.50;1.40;;;;;;;;;;5055321;28;20024;-70
2023/03/04 03:04:25;;;;;;;0.55;0.55;;;;;;;;;;5073317;28;20432;-70
2023/03/04 03:06:53;;;;;;;0.10;0.10;;;;;;;;;;5072242;28;20040;-70
2023/03/04 03:09:19;;;;;;;0.10;0.10;;;;;;;;;;5071809;28;20059;-70
2023/03/04 03:11:44;;;;;;;0.10;0.10;;;;;;;;;;5071746;28;20751;-68
2023/03/04 03:14:10;;;;;;;0.20;0.20;;;;;;;;;;5072054;28;20036;-69
2023/03/04 03:16:36;;;;;;;0.10;0.10;;;;;;;;;;5060659;28;20021;-68
2023/03/04 03:19:03;;;;;;;1.65;1.55;;;;;;;;;;5051858;28;20530;-70
2023/03/04 03:21:29;;;;;;;0.20;0.20;;;;;;;;;;5051730;28;20111;-70
2023/03/04 03:23:54;;;;;;;0.45;0.45;;;;;;;;;;5052792;28;20051;-70
2023/03/04 03:26:20;;;;;;;0.20;0.20;;;;;;;;;;5035143;28;20029;-71
2023/03/04 03:28:46;;;;;;;0.10;0.10;;;;;;;;;;5053077;28;20032;-69
2023/03/04 03:31:11;;;;;;;0.30;0.30;;;;;;;;;;5035060;28;20057;-70
2023/03/04 03:33:36;;;;;;;0.75;0.75;;;;;;;;;;5035581;28;20037;-70
2023/03/04 03:36:02;;;;;;;0.77;0.77;;;;;;;;;;5035016;28;20056;-69
2023/03/04 03:38:28;;;;;;;0.30;0.30;;;;;;;;;;5051469;28;20021;-70
2023/03/04 03:40:53;;;;;;;0.10;0.10;;;;;;;;;;5052367;28;20514;-70
2023/03/04 03:43:18;;;;;;;0.10;0.10;;;;;;;;;;5053015;28;20090;-71
2023/03/04 03:45:44;;;;;;;2.38;2.28;;;;;;;;;;5052877;28;20068;-71
2023/03/04 03:48:09;;;;;;;4.95;4.57;;;;;;;;;;5052751;28;20026;-69
2023/03/04 03:50:35;;;;;;;2.78;2.65;;;;;;;;;;5052780;28;20048;-69
2023/03/04 03:53:00;;;;;;;0.10;0.10;;;;;;;;;;5051525;28;20068;-69
2023/03/04 03:55:26;;;;;;;0.17;0.17;;;;;;;;;;5052577;28;20433;-71
2023/03/04 03:57:51;;;;;;;0.10;0.10;;;;;;;;;;5035010;28;20025;-70
2023/03/04 04:00:17;;;;;;;0.52;0.52;;;;;;;;;;5051430;28;20025;-72
2023/03/04 04:02:42;;;;;;;0.10;0.10;;;;;;;;;;5049886;28;20032;-72
2023/03/04 04:05:08;;;;;;;0.10;0.10;;;;;;;;;;5049482;28;20029;-71
2023/03/04 04:07:34;;;;;;;0.28;0.28;;;;;;;;;;5050160;28;20036;-71
2023/03/04 04:09:59;;;;;;;0.22;0.22;;;;;;;;;;5052102;28;20040;-72
2023/03/04 04:12:25;;;;;;;0.20;0.20;;;;;;;;;;5035131;28;20028;-70
2023/03/04 04:14:50;;;;;;;0.55;0.55;;;;;;;;;;5052171;28;20029;-70
2023/03/04 04:17:15;;;;;;;1.52;1.42;;;;;;;;;;5052151;28;20083;-70
2023/03/04 04:19:41;;;;;;;0.65;0.45;;;;;;;;;;5052511;28;20436;-71
2023/03/04 04:22:10;;;;;;;0.22;0.22;;;;;;;;;;5052093;28;20025;-70
2023/03/04 04:24:36;;;;;;;0.10;0.10;;;;;;;;;;5050893;28;20480;-72
2023/03/04 04:27:03;;;;;;;0.10;0.10;;;;;;;;;;5050993;28;20017;-70
2023/03/04 04:29:28;;;;;;;0.15;0.15;;;;;;;;;;5051856;28;20116;-70
2023/03/04 04:31:54;;;;;;;0.40;0.40;;;;;;;;;;5050641;28;20488;-70
2023/03/04 04:34:19;;;;;;;0.10;0.10;;;;;;;;;;5051959;28;20099;-70
2023/03/04 04:36:46;;;;;;;0.10;0.10;;;;;;;;;;5051690;28;20231;-70
2023/03/04 04:39:11;;;;;;;0.10;0.10;;;;;;;;;;5051908;28;20111;-77
2023/03/04 04:41:38;;;;;;;0.30;0.30;;;;;;;;;;5034276;28;20044;-71
2023/03/04 04:44:04;;;;;;;0.43;0.43;;;;;;;;;;5050445;28;20067;-71
2023/03/04 04:46:30;;;;;;;0.10;0.10;;;;;;;;;;5052570;28;20037;-70
2023/03/04 04:48:55;;;;;;;0.10;0.10;;;;;;;;;;5053117;28;20064;-70
2023/03/04 04:51:20;;;;;;;0.22;0.22;;;;;;;;;;5051886;28;20016;-70
2023/03/04 04:53:46;;;;;;;0.20;0.20;;;;;;;;;;5050653;28;20098;-71
2023/03/04 04:56:13;;;;;;;0.65;0.65;;;;;;;;;;5051501;28;20473;-70
2023/03/04 04:58:38;;;;;;;0.20;0.20;;;;;;;;;;5050219;28;20523;-71
2023/03/04 05:01:04;;;;;;;0.20;0.20;;;;;;;;;;5054700;28;20029;-73
2023/03/04 05:03:30;;;;;;;2.90;1.98;;;;;;;;;;5065146;28;20091;-70
2023/03/04 05:05:55;;;;;;;0.52;0.52;;;;;;;;;;5049601;28;20029;-71
2023/03/04 05:08:20;;;;;;;1.20;1.20;;;;;;;;;;5033255;28;20059;-71
2023/03/04 05:10:46;;;;;;;0.10;0.10;;;;;;;;;;5050802;28;20029;-74
2023/03/04 05:13:12;;;;;;;0.10;0.10;;;;;;;;;;5050104;28;20033;-75
2023/03/04 05:15:37;;;;;;;0.30;0.30;;;;;;;;;;5049820;28;20024;-70
2023/03/04 05:18:03;;;;;;;0.50;0.50;;;;;;;;;;5049994;28;20358;-71
2023/03/04 05:20:28;;;;;;;0.20;0.20;;;;;;;;;;5050731;28;20025;-71
2023/03/04 05:22:54;;;;;;;0.10;0.10;;;;;;;;;;5050934;28;20048;-70
2023/03/04 05:25:19;;;;;;;0.10;0.10;;;;;;;;;;5051106;28;20033;-71
2023/03/04 05:27:48;;;;;;;0.10;0.10;;;;;;;;;;5033013;28;20029;-70
2023/03/04 05:30:13;;;;;;;0.13;0.13;;;;;;;;;;5050927;28;20402;-70
2023/03/04 05:32:39;;;;;;;1.95;1.85;;;;;;;;;;5049137;28;20507;-71
2023/03/04 05:35:05;;;;;;;1.00;0.75;;;;;;;;;;5033023;28;20036;-71
2023/03/04 05:37:30;;;;;;;0.10;0.10;;;;;;;;;;5050783;28;20499;-71
2023/03/04 05:39:56;;;;;;;0.30;0.30;;;;;;;;;;5057441;28;20491;-72
2023/03/04 05:42:21;;;;;;;0.10;0.10;;;;;;;;;;5053568;28;20359;-72
2023/03/04 05:44:47;;;;;;;0.10;0.10;;;;;;;;;;5049258;28;20045;-72
2023/03/04 05:47:12;;;;;;;0.10;0.10;;;;;;;;;;5052311;28;20021;-72
2023/03/04 05:49:37;;;;;;;0.10;0.10;;;;;;;;;;5050298;28;20055;-72
2023/03/04 05:52:03;;;;;;;0.10;0.10;;;;;;;;;;5050256;28;20527;-75
2023/03/04 05:54:28;;;;;;;0.10;0.10;;;;;;;;;;5050693;28;20025;-72
2023/03/04 05:56:54;;;;;;;0.43;0.43;;;;;;;;;;5054914;28;20032;-72
2023/03/04 05:59:19;;;;;;;0.20;0.20;;;;;;;;;;5061678;28;20033;-71
2023/03/04 06:01:45;;;;;;;0.10;0.10;;;;;;;;;;5059985;28;20034;-70
2023/03/04 06:04:10;;;;;;;14.70;7.00;;;;;;;;;;5069623;28;20044;-70
2023/03/04 06:06:36;;;;;;;0.15;0.15;;;;;;;;;;5070207;28;20036;-70
2023/03/04 06:09:01;;;;;;;0.10;0.10;;;;;;;;;;5069303;28;20497;-70
2023/03/04 06:11:27;;;;;;;0.10;0.10;;;;;;;;;;5070157;28;20620;-71
2023/03/04 06:13:52;;;;;;;0.10;0.10;;;;;;;;;;5068643;28;20036;-71
2023/03/04 06:16:18;;;;;;;0.17;0.17;;;;;;;;;;5068568;28;20027;-74
2023/03/04 06:18:43;;;;;;;0.95;0.77;;;;;;;;;;5069014;28;20029;-71
2023/03/04 06:21:08;;;;;;;0.20;0.20;;;;;;;;;;5069965;28;20123;-71
2023/03/04 06:23:34;;;;;;;0.10;0.10;;;;;;;;;;5069931;28;20754;-71
2023/03/04 06:26:00;;;;;;;0.10;0.10;;;;;;;;;;5070158;28;20467;-71
2023/03/04 06:28:26;;;;;;;0.10;0.10;;;;;;;;;;5068555;28;20040;-71
2023/03/04 06:30:52;;;;;;;0.10;0.10;;;;;;;;;;5069308;28;20021;-73
2023/03/04 06:33:17;;;;;;;0.10;0.10;;;;;;;;;;5051286;28;20037;-72
2023/03/04 06:35:43;;;;;;;3.13;2.92;;;;;;;;;;5049718;28;20490;-71
2023/03/04 06:38:08;;;;;;;0.13;0.13;;;;;;;;;;5050032;28;20021;-73
2023/03/04 06:40:34;;;;;;;0.10;0.10;;;;;;;;;;5049449;28;20120;-72
2023/03/04 06:42:59;;;;;;;0.10;0.10;;;;;;;;;;5049688;28;20045;-74
2023/03/04 06:45:25;;;;;;;0.10;0.10;;;;;;;;;;5049668;28;20036;-72
2023/03/04 06:47:50;;;;;;;0.17;0.17;;;;;;;;;;5052327;28;20051;-72
2023/03/04 06:50:16;;;;;;;0.10;0.10;;;;;;;;;;5059568;28;20036;-71
2023/03/04 06:52:41;;;;;;;0.10;0.10;;;;;;;;;;5067727;28;20028;-71
2023/03/04 06:55:07;;;;;;;0.13;0.13;;;;;;;;;;5069280;28;20102;-70
2023/03/04 06:57:32;;;;;;;24.98;1.98;;;;;;;;;;5069825;28;20115;-70
2023/03/04 06:59:58;;;;;;;0.10;0.10;;;;;;;;;;5069318;28;20017;-70
2023/03/04 07:02:23;;;;;;;0.88;0.88;;;;;;;;;;5067992;28;20116;-70
2023/03/04 07:04:48;;;;;;;0.10;0.10;;;;;;;;;;5069295;28;20044;-71
2023/03/04 07:07:14;;;;;;;0.22;0.22;;;;;;;;;;5068313;28;20035;-74
2023/03/04 07:09:39;;;;;;;0.20;0.20;;;;;;;;;;5069659;28;20031;-71
2023/03/04 07:12:05;;;;;;;0.20;0.20;;;;;;;;;;5067705;28;20024;-72
2023/03/04 07:14:30;;;;;;;0.28;0.28;;;;;;;;;;5031378;28;20036;-72
2023/03/04 07:16:55;;;;;;;0.10;0.10;;;;;;;;;;5048012;28;20029;-74
2023/03/04 07:19:21;;;;;;;0.30;0.30;;;;;;;;;;5049041;28;20033;-70
2023/03/04 07:21:46;;;;;;;0.20;0.20;;;;;;;;;;5049596;28;20044;-70
2023/03/04 07:24:12;;;;;;;0.10;0.10;;;;;;;;;;5049269;28;20040;-72
2023/03/04 07:26:38;;;;;;;0.10;0.10;;;;;;;;;;5048071;28;20052;-70
2023/03/04 07:29:03;;;;;;;0.13;0.13;;;;;;;;;;5055912;28;20037;-70
2023/03/04 07:31:30;;;;;;;0.10;0.10;;;;;;;;;;5068809;28;20053;-70
2023/03/04 07:33:57;;;;;;;0.15;0.15;;;;;;;;;;5068440;28;20048;-70
2023/03/04 07:36:22;;;;;;;2.38;0.73;;;;;;;;;;5069008;28;20079;-74
2023/03/04 07:38:49;;;;;;;0.30;0.30;;;;;;;;;;5055318;28;20025;-76
2023/03/04 07:41:15;;;;;;;4.47;1.73;;;;;;;;;;5057785;28;20040;-75
2023/03/04 07:43:40;;;;;;;7.88;0.98;;;;;;;;;;5052989;28;20045;-75
2023/03/04 07:46:06;;;;;;;0.10;0.10;;;;;;;;;;5052834;28;20060;-75
2023/03/04 07:48:31;;;;;;;0.10;0.10;;;;;;;;;;5052845;28;20028;-74
2023/03/04 07:51:16;;;;;;;0.10;0.10;;;;;;;;;;5052841;28;20028;-75
2023/03/04 07:53:42;;;;;;;0.10;0.10;;;;;;;;;;5052639;28;20472;-76
2023/03/04 07:56:10;;;;;;;0.22;0.22;;;;;;;;;;5054810;28;20062;-75
2023/03/04 07:58:36;;;;;;;0.52;0.52;;;;;;;;;;5061717;28;20220;-76
2023/03/04 08:01:07;;;;;;;0.20;0.20;;;;;;;;;;5052989;28;20096;-76
2023/03/04 08:03:32;;;;;;;0.10;0.10;;;;;;;;;;5052019;28;20823;-75
2023/03/04 08:05:58;;;;;;;0.32;0.32;;;;;;;;;;5052383;28;20108;-74
2023/03/04 08:08:23;;;;;;;1.55;0.60;;;;;;;;;;5052183;28;20067;-77
2023/03/04 08:10:48;;;;;;;0.10;0.10;;;;;;;;;;5052423;28;20113;-75
2023/03/04 08:13:14;;;;;;;0.40;0.30;;;;;;;;;;5051875;28;20033;-75
2023/03/04 08:15:40;;;;;;;2.00;1.27;;;;;;;;;;5051941;28;20025;-75
2023/03/04 08:18:05;;;;;;;0.15;0.15;;;;;;;;;;5052282;28;20028;-74
2023/03/04 08:20:31;;;;;;;0.52;0.52;;;;;;;;;;5052350;28;20415;-74
2023/03/04 08:22:56;;;;;;;0.13;0.13;;;;;;;;;;5051932;28;20365;-76
2023/03/04 08:25:22;;;;;;;6.07;3.33;;;;;;;;;;5051847;28;20419;-76
2023/03/04 08:27:47;;;;;;;1.10;1.10;;;;;;;;;;5055469;28;20115;-75
2023/03/04 08:30:13;;;;;;;0.10;0.10;;;;;;;;;;5057991;28;20082;-76
2023/03/04 08:32:38;;;;;;;0.10;0.10;;;;;;;;;;5066936;28;20056;-75
2023/03/04 08:35:04;;;;;;;0.15;0.15;;;;;;;;;;5055049;28;20524;-75
2023/03/04 08:37:29;;;;;;;1.17;1.17;;;;;;;;;;5050007;28;20476;-75
2023/03/04 08:39:54;;;;;;;0.20;0.20;;;;;;;;;;5051684;28;20091;-74
2023/03/04 08:42:20;;;;;;;0.10;0.10;;;;;;;;;;5056225;28;20392;-73
2023/03/04 08:44:45;;;;;;;0.20;0.20;;;;;;;;;;5051862;28;20446;-76
2023/03/04 08:47:11;;;;;;;0.10;0.10;;;;;;;;;;5054740;28;20060;-76
2023/03/04 08:49:37;;;;;;;0.20;0.20;;;;;;;;;;5051480;28;20053;-76
2023/03/04 08:52:02;;;;;;;1.10;1.10;;;;;;;;;;5051322;28;20021;-75
2023/03/04 08:54:28;;;;;;;0.20;0.20;;;;;;;;;;5053412;28;20050;-75
2023/03/04 08:56:53;;;;;;;0.40;0.40;;;;;;;;;;5051900;28;20028;-75
2023/03/04 08:59:18;;;;;;;0.55;0.40;;;;;;;;;;5049237;28;20167;-76
2023/03/04 09:01:44;;;;;;;0.20;0.20;;;;;;;;;;5049676;28;20052;-77
2023/03/04 09:04:09;;;;;;;0.20;0.20;;;;;;;;;;5048956;28;20438;-76
2023/03/04 09:06:35;;;;;;;0.20;0.20;;;;;;;;;;5049113;28;20029;-77
2023/03/04 09:09:00;;;;;;;0.28;0.28;;;;;;;;;;5050734;28;20108;-77
2023/03/04 09:11:26;;;;;;;0.35;0.35;;;;;;;;;;5050344;28;20356;-74
2023/03/04 09:13:52;;;;;;;0.20;0.20;;;;;;;;;;5050490;28;20021;-77
2023/03/04 09:16:17;;;;;;;0.20;0.20;;;;;;;;;;5050143;28;20024;-77
2023/03/04 09:18:43;;;;;;;0.10;0.10;;;;;;;;;;5049020;28;20029;-76
2023/03/04 09:21:08;;;;;;;0.10;0.10;;;;;;;;;;5049148;28;20025;-76
2023/03/04 09:23:34;;;;;;;0.40;0.40;;;;;;;;;;5047028;28;20036;-76
2023/03/04 09:26:00;;;;;;;0.20;0.20;;;;;;;;;;5047449;28;20017;-77
2023/03/04 09:28:25;;;;;;;0.22;0.22;;;;;;;;;;5048873;28;20468;-77
2023/03/04 09:30:51;;;;;;;0.20;0.20;;;;;;;;;;5047695;28;20021;-77
2023/03/04 09:33:16;;;;;;;0.10;0.10;;;;;;;;;;5050923;28;20486;-77
2023/03/04 09:35:42;;;;;;;0.20;0.20;;;;;;;;;;5050730;28;20033;-76
2023/03/04 09:38:08;;;;;;;0.20;0.20;;;;;;;;;;5050848;28;20377;-77
2023/03/04 09:40:47;;;;;;;0.10;0.10;;;;;;;;;;5050504;28;20017;-77
2023/03/04 09:43:19;;;;;;;1.30;0.57;;;;;;;;;;5060192;28;20040;-75
2023/03/04 09:45:50;;;;;;;0.10;0.10;;;;;;;;;;5070473;28;20143;-75
2023/03/04 09:48:19;;;;;;;0.10;0.10;;;;;;;;;;5055985;28;20852;-77
2023/03/04 09:51:05;;;;;;;0.20;0.20;;;;;;;;;;5059136;28;20066;-77
2023/03/04 09:53:45;;;;;;;0.20;0.20;;;;;;;;;;5063306;28;20460;-76
2023/03/04 09:56:12;;;;;;;0.20;0.20;;;;;;;;;;5054263;28;20021;-77
2023/03/04 09:58:40;;;;;;;0.10;0.10;;;;;;;;;;5050244;28;20060;-77
2023/03/04 10:01:25;;;;;;;0.20;0.20;;;;;;;;;;5050177;28;20056;-77
2023/03/04 10:03:57;;;;;;;0.20;0.20;;;;;;;;;;5048877;28;20123;-77
2023/03/04 10:06:22;;;;;;;0.65;0.65;;;;;;;;;;5051680;28;20472;-77
2023/03/04 10:08:48;;;;;;;0.30;0.30;;;;;;;;;;5048814;28;20032;-77
2023/03/04 10:11:15;;;;;;;0.20;0.20;;;;;;;;;;5052339;28;20053;-76
2023/03/04 10:14:10;;;;;;;0.20;0.20;;;;;;;;;;5049980;28;20071;-78
2023/03/04 10:16:41;;;;;;;0.20;0.20;;;;;;;;;;5061941;28;20115;-74
2023/03/04 10:19:13;;;;;;;0.30;0.30;;;;;;;;;;5069761;28;20498;-75
2023/03/04 10:21:41;;;;;;;0.20;0.20;;;;;;;;;;5069733;28;20082;-76
2023/03/04 10:24:12;;;;;;;0.17;0.17;;;;;;;;;;5067641;28;20036;-76
2023/03/04 10:26:38;;;;;;;0.20;0.20;;;;;;;;;;5052712;28;20035;-76
2023/03/04 10:29:06;;;;;;;0.20;0.20;;;;;;;;;;5068268;28;20028;-73
2023/03/04 10:31:36;;;;;;;0.13;0.13;;;;;;;;;;5064476;28;20110;-77
2023/03/04 10:34:03;;;;;;;0.10;0.10;;;;;;;;;;5069527;28;20032;-75
2023/03/04 10:36:28;;;;;;;0.20;0.20;;;;;;;;;;5069378;28;20104;-76
2023/03/04 10:39:06;;;;;;;0.30;0.30;;;;;;;;;;5070369;28;20120;-76
2023/03/04 10:41:32;;;;;;;0.13;0.13;;;;;;;;;;5063761;28;20401;-76
2023/03/04 10:43:57;;;;;;;0.20;0.20;;;;;;;;;;5048930;28;20388;-75
2023/03/04 10:46:23;;;;;;;0.20;0.20;;;;;;;;;;5049569;28;20036;-75
2023/03/04 10:48:48;;;;;;;0.20;0.20;;;;;;;;;;5048476;28;20017;-76
2023/03/04 10:51:24;;;;;;;0.20;0.20;;;;;;;;;;5049399;28;20052;-76
2023/03/04 10:53:51;;;;;;;0.30;0.30;;;;;;;;;;5049338;28;20021;-77
2023/03/04 10:56:32;;;;;;;0.50;0.50;;;;;;;;;;5048013;28;20033;-76
2023/03/04 10:59:16;;;;;;;0.20;0.20;;;;;;;;;;5049291;28;20436;-74
2023/03/04 11:01:41;;;;;;;0.20;0.20;;;;;;;;;;5049230;28;20399;-76
2023/03/04 11:04:15;;;;;;;0.40;0.40;;;;;;;;;;5048770;28;20074;-75
2023/03/04 11:06:41;;;;;;;1.02;0.82;;;;;;;;;;5048202;28;20033;-75
2023/03/04 11:09:18;;;;;;;0.20;0.20;;;;;;;;;;5049125;28;20448;-75
2023/03/04 11:11:44;;;;;;;47.92;6.75;;;;;;;;;;5048790;28;20091;-75
2023/03/04 11:14:33;;;;;;;0.20;0.20;;;;;;;;;;5049708;28;20017;-75
2023/03/04 11:17:14;;;;;;;0.20;0.20;;;;;;;;;;5048135;28;20519;-76
2023/03/04 11:19:41;;;;;;;0.20;0.20;;;;;;;;;;5051280;28;20435;-76
2023/03/04 11:22:09;;;;;;;0.20;0.20;;;;;;;;;;5050864;28;20032;-75
2023/03/04 11:24:36;;;;;;;0.40;0.40;;;;;;;;;;5051111;28;20076;-76
2023/03/04 11:27:02;;;;;;;0.20;0.20;;;;;;;;;;5051005;28;20028;-75
2023/03/04 11:29:30;;;;;;;0.20;0.20;;;;;;;;;;5033018;28;20029;-75
2023/03/04 11:31:59;;;;;;;1.48;1.02;;;;;;;;;;5051369;28;20053;-75
2023/03/04 11:34:31;;;;;;;4.30;0.85;;;;;;;;;;5053443;28;20032;-75
2023/03/04 11:36:59;;;;;;;0.20;0.20;;;;;;;;;;5052515;28;20530;-75
2023/03/04 11:39:33;;;;;;;0.20;0.20;;;;;;;;;;5051387;28;20048;-75
2023/03/04 11:42:22;;;;;;;0.40;0.40;;;;;;;;;;5050909;28;20033;-75
2023/03/04 11:44:47;;;;;;;1.00;0.90;;;;;;;;;;5050897;28;20037;-75
2023/03/04 11:47:16;;;;;;;0.50;0.50;;;;;;;;;;5050408;28;20028;-75
2023/03/04 11:50:04;;;;;;;0.10;0.10;;;;;;;;;;5049904;28;20440;-76
2023/03/04 11:52:30;;;;;;;0.70;0.70;;;;;;;;;;5051058;28;20136;-74
2023/03/04 11:55:07;;;;;;;2.63;0.88;;;;;;;;;;5052288;28;20116;-76
2023/03/04 11:57:36;;;;;;;1.20;1.10;;;;;;;;;;5052307;28;20410;-76
2023/03/04 12:00:19;;;;;;;2.20;1.45;;;;;;;;;;5052590;28;20037;-75
2023/03/04 12:02:45;;;;;;;1.50;1.08;;;;;;;;;;5051045;28;20102;-75
2023/03/04 12:05:11;;;;;;;3.80;1.67;;;;;;;;;;5052157;28;20104;-74
2023/03/04 12:08:05;;;;;;;0.13;0.13;;;;;;;;;;5050382;28;20032;-75
2023/03/04 12:10:40;;;;;;;1.35;1.00;;;;;;;;;;5074638;28;20072;-75
2023/03/04 12:13:29;;;;;;;1.15;0.63;;;;;;;;;;5071761;28;20036;-75
2023/03/04 12:16:08;;;;;;;0.10;0.10;;;;;;;;;;5072009;28;20024;-75
2023/03/04 12:18:33;;;;;;;3.70;1.75;;;;;;;;;;5072371;28;20103;-75
2023/03/04 12:21:02;;;;;;;0.52;0.47;;;;;;;;;;5072368;28;20096;-76
2023/03/04 12:23:43;;;;;;;2.38;1.52;;;;;;;;;;5071724;28;20510;-74
2023/03/04 12:26:28;;;;;;;0.63;0.40;;;;;;;;;;5071137;28;20031;-74
2023/03/04 12:28:57;;;;;;;0.80;0.65;;;;;;;;;;5071806;28;20036;-75
2023/03/04 12:31:37;;;;;;;1.15;0.90;;;;;;;;;;5071865;28;20040;-75
2023/03/04 12:34:13;;;;;;;3.33;1.27;;;;;;;;;;5071625;28;20036;-73
2023/03/04 12:36:41;;;;;;;3.10;1.50;;;;;;;;;;5071829;28;20376;-74
2023/03/04 12:39:18;;;;;;;1.35;1.10;;;;;;;;;;5071857;28;20025;-74
2023/03/04 12:41:53;;;;;;;0.30;0.30;;;;;;;;;;5070865;28;20060;-73
2023/03/04 12:44:19;;;;;;;1.13;0.57;;;;;;;;;;5071788;28;20467;-73
2023/03/04 12:46:51;;;;;;;3.47;1.92;;;;;;;;;;5070936;28;20184;-73
2023/03/04 12:49:28;;;;;;;0.25;0.25;;;;;;;;;;5071392;28;20100;-74
2023/03/04 12:52:00;;;;;;;0.20;0.20;;;;;;;;;;5071976;28;20041;-74
2023/03/04 12:54:31;;;;;;;2.10;1.55;;;;;;;;;;5072047;28;20024;-75
2023/03/04 12:57:03;;;;;;;1.70;1.20;;;;;;;;;;5071424;28;20024;-72
2023/03/04 12:59:32;;;;;;;1.35;0.98;;;;;;;;;;5071280;28;20120;-73
2023/03/04 13:01:58;;;;;;;;;;;;;;;;;;5070779;28;20241;-74
2023/03/04 13:04:36;;;;;;;3.33;1.27;;;;;;;;;;5071240;28;20419;-74
2023/03/04 13:07:01;;;;;;;2.88;1.92;;;;;;;;;;5071941;28;20071;-75
2023/03/04 13:09:50;;;;;;;2.33;1.63;;;;;;;;;;5071163;28;20400;-73
2023/03/04 13:12:18;;;;;;;0.85;0.70;;;;;;;;;;5070775;28;20047;-74
2023/03/04 13:15:04;;;;;;;4.50;1.48;;;;;;;;;;5071427;28;20056;-74
2023/03/04 13:17:35;;;;;;;3.55;1.70;;;;;;;;;;5071353;28;20044;-75
2023/03/04 13:20:16;;;;;;;0.95;0.80;;;;;;;;;;5070993;28;20016;-74
2023/03/04 13:22:57;;;;;;;0.38;0.38;;;;;;;;;;5071071;28;20036;-74
2023/03/04 13:25:34;;;;;;;1.17;0.70;;;;;;;;;;5070867;28;20024;-74
2023/03/04 13:28:12;;;;;;;1.25;0.93;;;;;;;;;;5069983;28;20387;-76
2023/03/04 13:30:38;;;;;;;3.10;0.65;;;;;;;;;;5053354;28;20145;-76
2023/03/04 13:33:09;;;;;;;0.40;0.40;;;;;;;;;;5071009;28;20046;-75
2023/03/04 13:35:53;;;;;;;1.17;0.85;;;;;;;;;;5070624;28;20503;-77
2023/03/04 13:38:22;;;;;;;0.73;0.60;;;;;;;;;;5070794;28;20032;-73
2023/03/04 13:41:06;;;;;;;2.05;1.20;;;;;;;;;;5069924;28;20056;-76
2023/03/04 13:43:43;;;;;;;0.70;0.60;;;;;;;;;;5070595;28;20037;-74
2023/03/04 13:46:18;;;;;;;4.32;1.13;;;;;;;;;;5071005;28;20028;-75
2023/03/04 13:48:49;;;;;;;2.70;0.30;;;;;;;;;;5070633;28;20464;-75
2023/03/04 13:51:43;;;;;;;1.67;0.90;;;;;;;;;;5070250;28;20062;-73
2023/03/04 13:54:20;;;;;;;0.30;0.30;;;;;;;;;;5070199;28;20067;-75
2023/03/04 13:56:46;;;;;;;2.53;1.42;;;;;;;;;;5070753;28;20540;-75
2023/03/04 13:59:18;;;;;;;1.20;0.90;;;;;;;;;;5070797;28;20028;-75
2023/03/04 14:01:43;;;;;;;2.83;1.38;;;;;;;;;;5070056;28;20476;-73
2023/03/04 14:04:19;;;;;;;1.83;1.05;;;;;;;;;;5069260;28;20041;-74
2023/03/04 14:06:45;;;;;;;1.48;1.05;;;;;;;;;;5052223;28;20043;-75
2023/03/04 14:09:15;;;;;;;4.22;0.88;;;;;;;;;;5070518;28;20028;-75
2023/03/04 14:11:41;;;;;;;3.40;0.45;;;;;;;;;;5069550;28;20020;-75
2023/03/04 14:14:10;;;;;;;1.17;0.63;;;;;;;;;;5069840;28;20090;-74
2023/03/04 14:16:46;;;;;;;3.05;1.10;;;;;;;;;;5070183;28;20021;-74
2023/03/04 14:19:32;;;;;;;0.30;0.30;;;;;;;;;;5070456;28;20157;-73
2023/03/04 14:21:59;;;;;;;2.15;1.25;;;;;;;;;;5068929;28;20032;-74
2023/03/04 14:24:24;;;;;;;4.97;1.10;;;;;;;;;;5068917;28;20049;-75
2023/03/04 14:27:02;;;;;;;2.17;0.88;;;;;;;;;;5067304;28;20039;-74
2023/03/04 14:29:29;;;;;;;1.27;1.02;;;;;;;;;;5068483;28;20031;-72
2023/03/04 14:31:55;;;;;;;3.78;1.25;;;;;;;;;;5069507;28;20055;-75
2023/03/04 14:34:27;;;;;;;2.42;1.27;;;;;;;;;;5068361;28;20032;-75
2023/03/04 14:36:53;;;;;;;5.72;1.00;;;;;;;;;;5069571;28;20368;-75
2023/03/04 14:39:19;;;;;;;9.38;1.40;;;;;;;;;;5067092;28;20028;-74
2023/03/04 14:41:45;;;;;;;0.77;0.65;;;;;;;;;;5068114;28;20075;-74
2023/03/04 14:44:46;;;;;;;1.08;0.73;;;;;;;;;;5067740;28;20150;-75
2023/03/04 14:47:50;;;;;;;1.73;0.45;;;;;;;;;;5048367;28;20075;-73
2023/03/04 14:50:17;;;;;;;1.15;0.63;;;;;;;;;;5006005;28;20038;-75